sensor_id;sensor_type;location;lat;lon;timestamp;temperature;humidity
65876;HTU21D;52657;51.128;5.938;2024-03-25T00:00:14;8.81;68.30
65876;HTU21D;52657;51.128;5.938;2024-03-25T00:02:41;8.79;68.30
65876;HTU21D;52657;51.128;5.938;2024-03-25T00:05:07;8.73;68.34
65876;HTU21D;52657;51.128;5.938;2024-03-25T00:07:39;8.66;68.55
65876;HTU21D;52657;51.128;5.938;2024-03-25T00:10:06;8.67;68.57
65876;HTU21D;52657;51.128;5.938;2024-03-25T00:12:36;8.66;68.51
65876;HTU21D;52657;51.128;5.938;2024-03-25T00:15:02;8.68;68.54
65876;HTU21D;52657;51.128;5.938;2024-03-25T00:17:28;8.65;68.55
65876;HTU21D;52657;51.128;5.938;2024-03-25T00:19:54;8.66;68.39
65876;HTU21D;52657;51.128;5.938;2024-03-25T00:22:21;8.58;68.39
65876;HTU21D;52657;51.128;5.938;2024-03-25T00:24:47;8.55;68.54
65876;HTU21D;52657;51.128;5.938;2024-03-25T00:27:14;8.51;68.56
65876;HTU21D;52657;51.128;5.938;2024-03-25T00:29:40;8.52;68.52
65876;HTU21D;52657;51.128;5.938;2024-03-25T00:32:06;8.52;68.47
65876;HTU21D;52657;51.128;5.938;2024-03-25T00:34:32;8.50;68.48
65876;HTU21D;52657;51.128;5.938;2024-03-25T00:37:04;8.44;68.62
65876;HTU21D;52657;51.128;5.938;2024-03-25T00:39:30;8.42;68.77
65876;HTU21D;52657;51.128;5.938;2024-03-25T00:42:00;8.37;68.89
65876;HTU21D;52657;51.128;5.938;2024-03-25T00:44:26;8.31;69.14
65876;HTU21D;52657;51.128;5.938;2024-03-25T00:46:51;8.29;69.04
65876;HTU21D;52657;51.128;5.938;2024-03-25T00:49:17;8.24;69.01
65876;HTU21D;52657;51.128;5.938;2024-03-25T00:51:43;8.18;69.23
65876;HTU21D;52657;51.128;5.938;2024-03-25T00:54:08;8.17;69.35
65876;HTU21D;52657;51.128;5.938;2024-03-25T00:56:34;8.13;69.37
65876;HTU21D;52657;51.128;5.938;2024-03-25T00:59:00;8.08;69.62
65876;HTU21D;52657;51.128;5.938;2024-03-25T01:01:34;8.04;69.80
65876;HTU21D;52657;51.128;5.938;2024-03-25T01:04:02;8.00;70.01
65876;HTU21D;52657;51.128;5.938;2024-03-25T01:06:28;8.04;70.02
65876;HTU21D;52657;51.128;5.938;2024-03-25T01:08:54;8.04;69.90
65876;HTU21D;52657;51.128;5.938;2024-03-25T01:11:19;8.03;69.84
65876;HTU21D;52657;51.128;5.938;2024-03-25T01:13:47;7.97;69.97
65876;HTU21D;52657;51.128;5.938;2024-03-25T01:16:13;7.92;70.06
65876;HTU21D;52657;51.128;5.938;2024-03-25T01:18:38;7.89;70.16
65876;HTU21D;52657;51.128;5.938;2024-03-25T01:21:04;7.91;70.21
65876;HTU21D;52657;51.128;5.938;2024-03-25T01:23:30;7.89;70.27
65876;HTU21D;52657;51.128;5.938;2024-03-25T01:25:56;7.86;70.44
65876;HTU21D;52657;51.128;5.938;2024-03-25T01:28:25;7.85;70.52
65876;HTU21D;52657;51.128;5.938;2024-03-25T01:30:54;7.83;70.68
65876;HTU21D;52657;51.128;5.938;2024-03-25T01:33:19;7.86;70.66
65876;HTU21D;52657;51.128;5.938;2024-03-25T01:35:45;7.83;70.55
65876;HTU21D;52657;51.128;5.938;2024-03-25T01:38:11;7.83;70.60
65876;HTU21D;52657;51.128;5.938;2024-03-25T01:40:37;7.83;70.56
65876;HTU21D;52657;51.128;5.938;2024-03-25T01:43:03;7.82;70.52
65876;HTU21D;52657;51.128;5.938;2024-03-25T01:45:31;7.77;70.60
65876;HTU21D;52657;51.128;5.938;2024-03-25T01:48:04;7.79;70.53
65876;HTU21D;52657;51.128;5.938;2024-03-25T01:50:35;7.82;70.39
65876;HTU21D;52657;51.128;5.938;2024-03-25T01:53:02;7.84;70.23
65876;HTU21D;52657;51.128;5.938;2024-03-25T01:55:29;7.84;70.12
65876;HTU21D;52657;51.128;5.938;2024-03-25T01:57:56;7.85;70.02
65876;HTU21D;52657;51.128;5.938;2024-03-25T02:00:25;7.83;69.95
65876;HTU21D;52657;51.128;5.938;2024-03-25T02:02:52;7.81;69.97
65876;HTU21D;52657;51.128;5.938;2024-03-25T02:05:19;7.75;70.13
65876;HTU21D;52657;51.128;5.938;2024-03-25T02:07:45;7.73;70.27
65876;HTU21D;52657;51.128;5.938;2024-03-25T02:10:11;7.70;70.29
65876;HTU21D;52657;51.128;5.938;2024-03-25T02:12:43;7.65;70.45
65876;HTU21D;52657;51.128;5.938;2024-03-25T02:15:11;7.68;70.47
65876;HTU21D;52657;51.128;5.938;2024-03-25T02:17:38;7.68;70.29
65876;HTU21D;52657;51.128;5.938;2024-03-25T02:20:06;7.69;70.29
65876;HTU21D;52657;51.128;5.938;2024-03-25T02:22:34;7.68;70.32
65876;HTU21D;52657;51.128;5.938;2024-03-25T02:25:06;7.68;70.25
65876;HTU21D;52657;51.128;5.938;2024-03-25T02:27:34;7.69;70.19
65876;HTU21D;52657;51.128;5.938;2024-03-25T02:30:06;7.68;70.15
65876;HTU21D;52657;51.128;5.938;2024-03-25T02:32:33;7.63;70.21
65876;HTU21D;52657;51.128;5.938;2024-03-25T02:35:05;7.60;70.26
65876;HTU21D;52657;51.128;5.938;2024-03-25T02:37:32;7.61;70.31
65876;HTU21D;52657;51.128;5.938;2024-03-25T02:40:02;7.56;70.39
65876;HTU21D;52657;51.128;5.938;2024-03-25T02:42:31;7.54;70.32
65876;HTU21D;52657;51.128;5.938;2024-03-25T02:44:57;7.53;70.42
65876;HTU21D;52657;51.128;5.938;2024-03-25T02:47:24;7.54;70.42
65876;HTU21D;52657;51.128;5.938;2024-03-25T02:49:50;7.50;70.48
65876;HTU21D;52657;51.128;5.938;2024-03-25T02:52:18;7.49;70.45
65876;HTU21D;52657;51.128;5.938;2024-03-25T02:54:43;7.48;70.40
65876;HTU21D;52657;51.128;5.938;2024-03-25T02:57:09;7.46;70.25
65876;HTU21D;52657;51.128;5.938;2024-03-25T02:59:35;7.41;70.13
65876;HTU21D;52657;51.128;5.938;2024-03-25T03:02:00;7.37;70.00
65876;HTU21D;52657;51.128;5.938;2024-03-25T03:04:29;7.32;69.97
65876;HTU21D;52657;51.128;5.938;2024-03-25T03:06:56;7.32;69.94
65876;HTU21D;52657;51.128;5.938;2024-03-25T03:09:22;7.31;69.92
65876;HTU21D;52657;51.128;5.938;2024-03-25T03:11:48;7.30;70.00
65876;HTU21D;52657;51.128;5.938;2024-03-25T03:14:14;7.30;70.04
65876;HTU21D;52657;51.128;5.938;2024-03-25T03:16:40;7.32;70.02
65876;HTU21D;52657;51.128;5.938;2024-03-25T03:19:05;7.31;69.85
65876;HTU21D;52657;51.128;5.938;2024-03-25T03:21:31;7.31;69.91
65876;HTU21D;52657;51.128;5.938;2024-03-25T03:23:57;7.30;69.94
65876;HTU21D;52657;51.128;5.938;2024-03-25T03:26:23;7.28;70.07
65876;HTU21D;52657;51.128;5.938;2024-03-25T03:28:53;7.27;70.03
65876;HTU21D;52657;51.128;5.938;2024-03-25T03:31:19;7.24;70.09
65876;HTU21D;52657;51.128;5.938;2024-03-25T03:33:47;7.20;70.06
65876;HTU21D;52657;51.128;5.938;2024-03-25T03:36:15;7.17;70.15
65876;HTU21D;52657;51.128;5.938;2024-03-25T03:38:41;7.14;70.16
65876;HTU21D;52657;51.128;5.938;2024-03-25T03:41:07;7.12;70.10
65876;HTU21D;52657;51.128;5.938;2024-03-25T03:43:32;7.08;70.01
65876;HTU21D;52657;51.128;5.938;2024-03-25T03:46:02;7.05;70.01
65876;HTU21D;52657;51.128;5.938;2024-03-25T03:48:28;6.97;70.08
65876;HTU21D;52657;51.128;5.938;2024-03-25T03:50:54;6.89;70.20
65876;HTU21D;52657;51.128;5.938;2024-03-25T03:53:20;6.87;70.23
65876;HTU21D;52657;51.128;5.938;2024-03-25T03:56:00;6.85;70.39
65876;HTU21D;52657;51.128;5.938;2024-03-25T03:58:28;6.87;70.43
65876;HTU21D;52657;51.128;5.938;2024-03-25T04:00:54;6.84;70.37
65876;HTU21D;52657;51.128;5.938;2024-03-25T04:03:20;6.85;70.44
65876;HTU21D;52657;51.128;5.938;2024-03-25T04:05:46;6.87;70.51
65876;HTU21D;52657;51.128;5.938;2024-03-25T04:08:12;6.86;70.45
65876;HTU21D;52657;51.128;5.938;2024-03-25T04:10:38;6.87;70.40
65876;HTU21D;52657;51.128;5.938;2024-03-25T04:13:05;6.87;70.41
65876;HTU21D;52657;51.128;5.938;2024-03-25T04:15:38;6.86;70.32
65876;HTU21D;52657;51.128;5.938;2024-03-25T04:18:04;6.87;70.22
65876;HTU21D;52657;51.128;5.938;2024-03-25T04:20:39;6.85;70.09
65876;HTU21D;52657;51.128;5.938;2024-03-25T04:23:05;6.81;69.95
65876;HTU21D;52657;51.128;5.938;2024-03-25T04:25:34;6.79;69.90
65876;HTU21D;52657;51.128;5.938;2024-03-25T04:28:03;6.75;69.88
65876;HTU21D;52657;51.128;5.938;2024-03-25T04:30:29;6.72;69.96
65876;HTU21D;52657;51.128;5.938;2024-03-25T04:32:55;6.70;69.87
65876;HTU21D;52657;51.128;5.938;2024-03-25T04:35:21;6.71;69.87
65876;HTU21D;52657;51.128;5.938;2024-03-25T04:37:46;6.70;69.91
65876;HTU21D;52657;51.128;5.938;2024-03-25T04:40:12;6.69;69.85
65876;HTU21D;52657;51.128;5.938;2024-03-25T04:42:44;6.68;69.85
65876;HTU21D;52657;51.128;5.938;2024-03-25T04:45:10;6.67;69.96
65876;HTU21D;52657;51.128;5.938;2024-03-25T04:47:38;6.66;69.90
65876;HTU21D;52657;51.128;5.938;2024-03-25T04:50:04;6.63;69.88
65876;HTU21D;52657;51.128;5.938;2024-03-25T04:52:30;6.60;69.80
65876;HTU21D;52657;51.128;5.938;2024-03-25T04:54:59;6.55;69.78
65876;HTU21D;52657;51.128;5.938;2024-03-25T04:57:25;6.56;69.70
65876;HTU21D;52657;51.128;5.938;2024-03-25T04:59:51;6.54;69.55
65876;HTU21D;52657;51.128;5.938;2024-03-25T05:02:16;6.52;69.51
65876;HTU21D;52657;51.128;5.938;2024-03-25T05:04:42;6.49;69.54
65876;HTU21D;52657;51.128;5.938;2024-03-25T05:07:08;6.46;69.61
65876;HTU21D;52657;51.128;5.938;2024-03-25T05:09:34;6.45;69.62
65876;HTU21D;52657;51.128;5.938;2024-03-25T05:12:00;6.45;69.70
65876;HTU21D;52657;51.128;5.938;2024-03-25T05:14:26;6.46;69.61
65876;HTU21D;52657;51.128;5.938;2024-03-25T05:16:51;6.45;69.61
65876;HTU21D;52657;51.128;5.938;2024-03-25T05:19:19;6.45;69.68
65876;HTU21D;52657;51.128;5.938;2024-03-25T05:21:45;6.48;69.65
65876;HTU21D;52657;51.128;5.938;2024-03-25T05:24:10;6.45;69.58
65876;HTU21D;52657;51.128;5.938;2024-03-25T05:26:36;6.41;69.55
65876;HTU21D;52657;51.128;5.938;2024-03-25T05:29:02;6.38;69.52
65876;HTU21D;52657;51.128;5.938;2024-03-25T05:31:28;6.37;69.57
65876;HTU21D;52657;51.128;5.938;2024-03-25T05:33:54;6.34;69.43
65876;HTU21D;52657;51.128;5.938;2024-03-25T05:36:20;6.31;69.54
65876;HTU21D;52657;51.128;5.938;2024-03-25T05:38:46;6.31;69.79
65876;HTU21D;52657;51.128;5.938;2024-03-25T05:41:12;6.33;70.01
65876;HTU21D;52657;51.128;5.938;2024-03-25T05:43:37;6.35;70.08
65876;HTU21D;52657;51.128;5.938;2024-03-25T05:46:04;6.36;70.03
65876;HTU21D;52657;51.128;5.938;2024-03-25T05:48:30;6.38;70.06
65876;HTU21D;52657;51.128;5.938;2024-03-25T05:51:03;6.41;70.13
65876;HTU21D;52657;51.128;5.938;2024-03-25T05:53:33;6.42;70.22
65876;HTU21D;52657;51.128;5.938;2024-03-25T05:55:59;6.43;70.23
65876;HTU21D;52657;51.128;5.938;2024-03-25T05:58:26;6.45;70.19
65876;HTU21D;52657;51.128;5.938;2024-03-25T06:00:52;6.48;70.16
65876;HTU21D;52657;51.128;5.938;2024-03-25T06:03:19;6.49;70.28
65876;HTU21D;52657;51.128;5.938;2024-03-25T06:05:46;6.50;70.46
65876;HTU21D;52657;51.128;5.938;2024-03-25T06:08:12;6.53;70.55
65876;HTU21D;52657;51.128;5.938;2024-03-25T06:10:47;6.57;70.68
65876;HTU21D;52657;51.128;5.938;2024-03-25T06:13:12;6.59;70.93
65876;HTU21D;52657;51.128;5.938;2024-03-25T06:15:38;6.64;71.18
65876;HTU21D;52657;51.128;5.938;2024-03-25T06:18:04;6.70;71.32
65876;HTU21D;52657;51.128;5.938;2024-03-25T06:20:30;6.75;71.31
65876;HTU21D;52657;51.128;5.938;2024-03-25T06:22:56;6.79;71.16
65876;HTU21D;52657;51.128;5.938;2024-03-25T06:25:21;6.84;71.19
65876;HTU21D;52657;51.128;5.938;2024-03-25T06:27:48;6.91;71.24
65876;HTU21D;52657;51.128;5.938;2024-03-25T06:30:15;6.99;71.16
65876;HTU21D;52657;51.128;5.938;2024-03-25T06:32:59;7.05;71.06
65876;HTU21D;52657;51.128;5.938;2024-03-25T06:35:44;7.13;70.98
65876;HTU21D;52657;51.128;5.938;2024-03-25T06:38:10;7.19;71.03
65876;HTU21D;52657;51.128;5.938;2024-03-25T06:40:37;7.25;70.97
65876;HTU21D;52657;51.128;5.938;2024-03-25T06:43:04;7.30;71.07
65876;HTU21D;52657;51.128;5.938;2024-03-25T06:45:30;7.35;71.11
65876;HTU21D;52657;51.128;5.938;2024-03-25T06:47:57;7.40;71.00
65876;HTU21D;52657;51.128;5.938;2024-03-25T06:50:23;7.46;70.97
65876;HTU21D;52657;51.128;5.938;2024-03-25T06:52:50;7.50;70.79
65876;HTU21D;52657;51.128;5.938;2024-03-25T06:55:16;7.56;70.72
65876;HTU21D;52657;51.128;5.938;2024-03-25T06:57:42;7.64;70.73
65876;HTU21D;52657;51.128;5.938;2024-03-25T07:00:07;7.71;70.69
65876;HTU21D;52657;51.128;5.938;2024-03-25T07:02:41;7.79;71.04
65876;HTU21D;52657;51.128;5.938;2024-03-25T07:05:08;7.89;71.23
65876;HTU21D;52657;51.128;5.938;2024-03-25T07:07:34;7.98;71.33
65876;HTU21D;52657;51.128;5.938;2024-03-25T07:10:00;8.07;71.41
65876;HTU21D;52657;51.128;5.938;2024-03-25T07:12:29;8.20;71.20
65876;HTU21D;52657;51.128;5.938;2024-03-25T07:14:55;8.35;70.97
65876;HTU21D;52657;51.128;5.938;2024-03-25T07:17:21;8.79;71.72
65876;HTU21D;52657;51.128;5.938;2024-03-25T07:19:47;9.59;72.66
65876;HTU21D;52657;51.128;5.938;2024-03-25T07:22:21;10.52;70.41
65876;HTU21D;52657;51.128;5.938;2024-03-25T07:24:48;11.32;67.17
65876;HTU21D;52657;51.128;5.938;2024-03-25T07:27:14;12.03;64.43
65876;HTU21D;52657;51.128;5.938;2024-03-25T07:29:40;12.69;62.17
65876;HTU21D;52657;51.128;5.938;2024-03-25T07:32:05;13.23;60.22
65876;HTU21D;52657;51.128;5.938;2024-03-25T07:34:31;13.79;58.39
65876;HTU21D;52657;51.128;5.938;2024-03-25T07:36:57;14.34;56.93
65876;HTU21D;52657;51.128;5.938;2024-03-25T07:39:23;14.91;55.49
65876;HTU21D;52657;51.128;5.938;2024-03-25T07:41:52;15.43;53.67
65876;HTU21D;52657;51.128;5.938;2024-03-25T07:44:18;15.72;52.38
65876;HTU21D;52657;51.128;5.938;2024-03-25T07:46:45;16.04;51.74
65876;HTU21D;52657;51.128;5.938;2024-03-25T07:49:11;16.44;50.49
65876;HTU21D;52657;51.128;5.938;2024-03-25T07:51:37;16.70;48.98
65876;HTU21D;52657;51.128;5.938;2024-03-25T07:54:05;16.94;48.33
65876;HTU21D;52657;51.128;5.938;2024-03-25T07:56:33;17.18;47.57
65876;HTU21D;52657;51.128;5.938;2024-03-25T07:59:04;17.40;46.67
65876;HTU21D;52657;51.128;5.938;2024-03-25T08:01:30;17.32;46.12
65876;HTU21D;52657;51.128;5.938;2024-03-25T08:03:56;17.23;46.34
65876;HTU21D;52657;51.128;5.938;2024-03-25T08:06:22;17.25;46.15
65876;HTU21D;52657;51.128;5.938;2024-03-25T08:08:48;17.10;46.49
65876;HTU21D;52657;51.128;5.938;2024-03-25T08:11:14;17.24;46.26
65876;HTU21D;52657;51.128;5.938;2024-03-25T08:13:42;17.41;46.10
65876;HTU21D;52657;51.128;5.938;2024-03-25T08:16:08;17.65;46.02
65876;HTU21D;52657;51.128;5.938;2024-03-25T08:18:34;17.85;45.12
65876;HTU21D;52657;51.128;5.938;2024-03-25T08:21:02;18.03;44.93
65876;HTU21D;52657;51.128;5.938;2024-03-25T08:23:31;18.15;44.00
65876;HTU21D;52657;51.128;5.938;2024-03-25T08:25:57;18.27;44.48
65876;HTU21D;52657;51.128;5.938;2024-03-25T08:28:23;18.47;43.85
65876;HTU21D;52657;51.128;5.938;2024-03-25T08:30:48;18.59;43.36
65876;HTU21D;52657;51.128;5.938;2024-03-25T08:33:15;18.57;42.71
65876;HTU21D;52657;51.128;5.938;2024-03-25T08:35:43;18.57;42.97
65876;HTU21D;52657;51.128;5.938;2024-03-25T08:38:08;18.46;42.74
65876;HTU21D;52657;51.128;5.938;2024-03-25T08:40:37;18.48;43.35
65876;HTU21D;52657;51.128;5.938;2024-03-25T08:43:03;18.68;43.18
65876;HTU21D;52657;51.128;5.938;2024-03-25T08:45:28;18.93;42.73
65876;HTU21D;52657;51.128;5.938;2024-03-25T08:47:56;19.27;42.12
65876;HTU21D;52657;51.128;5.938;2024-03-25T08:50:25;19.63;41.42
65876;HTU21D;52657;51.128;5.938;2024-03-25T08:52:51;19.90;41.84
65876;HTU21D;52657;51.128;5.938;2024-03-25T08:55:17;20.18;40.12
65876;HTU21D;52657;51.128;5.938;2024-03-25T08:57:42;20.30;39.88
65876;HTU21D;52657;51.128;5.938;2024-03-25T09:00:11;20.31;39.62
65876;HTU21D;52657;51.128;5.938;2024-03-25T09:02:37;20.27;40.00
65876;HTU21D;52657;51.128;5.938;2024-03-25T09:05:03;20.35;39.78
65876;HTU21D;52657;51.128;5.938;2024-03-25T09:07:37;20.69;39.49
65876;HTU21D;52657;51.128;5.938;2024-03-25T09:10:05;21.21;37.78
65876;HTU21D;52657;51.128;5.938;2024-03-25T09:12:59;21.38;37.77
65876;HTU21D;52657;51.128;5.938;2024-03-25T09:15:33;21.46;37.61
65876;HTU21D;52657;51.128;5.938;2024-03-25T09:18:05;21.85;37.62
65876;HTU21D;52657;51.128;5.938;2024-03-25T09:20:33;22.24;37.21
65876;HTU21D;52657;51.128;5.938;2024-03-25T09:23:06;22.58;36.29
65876;HTU21D;52657;51.128;5.938;2024-03-25T09:25:37;22.88;35.15
65876;HTU21D;52657;51.128;5.938;2024-03-25T09:28:08;23.13;34.58
65876;HTU21D;52657;51.128;5.938;2024-03-25T09:30:44;23.11;33.26
65876;HTU21D;52657;51.128;5.938;2024-03-25T09:33:15;23.06;32.67
65876;HTU21D;52657;51.128;5.938;2024-03-25T09:35:47;23.05;33.19
65876;HTU21D;52657;51.128;5.938;2024-03-25T09:38:23;23.10;33.12
65876;HTU21D;52657;51.128;5.938;2024-03-25T09:40:53;22.99;32.75
65876;HTU21D;52657;51.128;5.938;2024-03-25T09:43:43;22.76;33.76
65876;HTU21D;52657;51.128;5.938;2024-03-25T09:46:23;22.66;33.28
65876;HTU21D;52657;51.128;5.938;2024-03-25T09:49:27;22.35;32.93
65876;HTU21D;52657;51.128;5.938;2024-03-25T09:52:24;22.33;33.72
65876;HTU21D;52657;51.128;5.938;2024-03-25T09:54:54;22.42;32.96
65876;HTU21D;52657;51.128;5.938;2024-03-25T09:57:21;22.33;33.12
65876;HTU21D;52657;51.128;5.938;2024-03-25T09:59:52;22.14;33.10
65876;HTU21D;52657;51.128;5.938;2024-03-25T10:02:18;22.04;33.09
65876;HTU21D;52657;51.128;5.938;2024-03-25T10:04:48;21.89;33.68
65876;HTU21D;52657;51.128;5.938;2024-03-25T10:07:24;21.88;32.89
65876;HTU21D;52657;51.128;5.938;2024-03-25T10:09:55;21.90;33.06
65876;HTU21D;52657;51.128;5.938;2024-03-25T10:12:21;21.95;31.62
65876;HTU21D;52657;51.128;5.938;2024-03-25T10:14:50;21.98;31.83
65876;HTU21D;52657;51.128;5.938;2024-03-25T10:17:17;21.93;31.45
65876;HTU21D;52657;51.128;5.938;2024-03-25T10:20:14;21.72;31.00
65876;HTU21D;52657;51.128;5.938;2024-03-25T10:22:46;21.44;29.30
65876;HTU21D;52657;51.128;5.938;2024-03-25T10:25:27;21.05;29.06
65876;HTU21D;52657;51.128;5.938;2024-03-25T10:28:00;20.71;29.67
65876;HTU21D;52657;51.128;5.938;2024-03-25T10:30:30;20.65;30.51
65876;HTU21D;52657;51.128;5.938;2024-03-25T10:33:05;20.62;30.90
65876;HTU21D;52657;51.128;5.938;2024-03-25T10:35:35;20.45;30.24
65876;HTU21D;52657;51.128;5.938;2024-03-25T10:38:14;20.07;30.77
65876;HTU21D;52657;51.128;5.938;2024-03-25T10:40:52;19.65;30.56
65876;HTU21D;52657;51.128;5.938;2024-03-25T10:43:29;19.16;30.64
65876;HTU21D;52657;51.128;5.938;2024-03-25T10:46:04;18.77;30.80
65876;HTU21D;52657;51.128;5.938;2024-03-25T10:48:38;18.42;30.59
65876;HTU21D;52657;51.128;5.938;2024-03-25T10:51:06;18.15;31.45
65876;HTU21D;52657;51.128;5.938;2024-03-25T10:53:36;17.94;32.67
65876;HTU21D;52657;51.128;5.938;2024-03-25T10:56:05;17.75;32.83
65876;HTU21D;52657;51.128;5.938;2024-03-25T10:58:33;17.63;31.85
65876;HTU21D;52657;51.128;5.938;2024-03-25T11:01:06;17.53;33.14
65876;HTU21D;52657;51.128;5.938;2024-03-25T11:03:33;17.54;33.02
65876;HTU21D;52657;51.128;5.938;2024-03-25T11:06:00;17.48;33.33
65876;HTU21D;52657;51.128;5.938;2024-03-25T11:08:31;17.38;33.51
65876;HTU21D;52657;51.128;5.938;2024-03-25T11:11:00;17.24;34.07
65876;HTU21D;52657;51.128;5.938;2024-03-25T11:13:31;17.16;33.92
65876;HTU21D;52657;51.128;5.938;2024-03-25T11:16:00;17.21;35.26
65876;HTU21D;52657;51.128;5.938;2024-03-25T11:18:29;17.21;34.00
65876;HTU21D;52657;51.128;5.938;2024-03-25T11:21:02;17.17;34.52
65876;HTU21D;52657;51.128;5.938;2024-03-25T11:23:42;17.17;34.60
65876;HTU21D;52657;51.128;5.938;2024-03-25T11:26:22;17.08;34.77
65876;HTU21D;52657;51.128;5.938;2024-03-25T11:28:49;17.03;34.96
65876;HTU21D;52657;51.128;5.938;2024-03-25T11:31:16;16.98;34.42
65876;HTU21D;52657;51.128;5.938;2024-03-25T11:33:51;16.92;35.02
65876;HTU21D;52657;51.128;5.938;2024-03-25T11:36:17;16.91;35.08
65876;HTU21D;52657;51.128;5.938;2024-03-25T11:39:04;16.89;34.84
65876;HTU21D;52657;51.128;5.938;2024-03-25T11:41:34;16.85;35.51
65876;HTU21D;52657;51.128;5.938;2024-03-25T11:44:02;16.85;34.88
65876;HTU21D;52657;51.128;5.938;2024-03-25T11:46:31;16.77;33.82
65876;HTU21D;52657;51.128;5.938;2024-03-25T11:48:57;16.71;33.83
65876;HTU21D;52657;51.128;5.938;2024-03-25T11:51:29;16.69;34.55
65876;HTU21D;52657;51.128;5.938;2024-03-25T11:53:56;16.65;33.73
65876;HTU21D;52657;51.128;5.938;2024-03-25T11:56:25;16.56;33.85
65876;HTU21D;52657;51.128;5.938;2024-03-25T11:58:54;16.50;34.38
65876;HTU21D;52657;51.128;5.938;2024-03-25T12:01:20;16.47;34.89
65876;HTU21D;52657;51.128;5.938;2024-03-25T12:03:46;16.51;35.74
65876;HTU21D;52657;51.128;5.938;2024-03-25T12:06:11;16.62;35.44
65876;HTU21D;52657;51.128;5.938;2024-03-25T12:08:37;16.79;36.44
65876;HTU21D;52657;51.128;5.938;2024-03-25T12:11:25;16.85;34.66
65876;HTU21D;52657;51.128;5.938;2024-03-25T12:13:51;16.80;34.01
65876;HTU21D;52657;51.128;5.938;2024-03-25T12:16:17;16.79;34.66
65876;HTU21D;52657;51.128;5.938;2024-03-25T12:18:45;16.79;34.02
65876;HTU21D;52657;51.128;5.938;2024-03-25T12:21:15;16.75;33.47
65876;HTU21D;52657;51.128;5.938;2024-03-25T12:23:42;16.72;32.79
65876;HTU21D;52657;51.128;5.938;2024-03-25T12:26:08;16.59;32.51
65876;HTU21D;52657;51.128;5.938;2024-03-25T12:28:34;16.60;32.63
65876;HTU21D;52657;51.128;5.938;2024-03-25T12:31:02;16.63;32.43
65876;HTU21D;52657;51.128;5.938;2024-03-25T12:33:28;16.63;32.06
65876;HTU21D;52657;51.128;5.938;2024-03-25T12:35:54;16.47;32.78
65876;HTU21D;52657;51.128;5.938;2024-03-25T12:38:24;16.49;32.19
65876;HTU21D;52657;51.128;5.938;2024-03-25T12:40:54;16.58;31.81
65876;HTU21D;52657;51.128;5.938;2024-03-25T12:43:20;16.55;32.24
65876;HTU21D;52657;51.128;5.938;2024-03-25T12:45:46;16.59;32.72
65876;HTU21D;52657;51.128;5.938;2024-03-25T12:48:14;16.69;32.43
65876;HTU21D;52657;51.128;5.938;2024-03-25T12:50:39;16.75;32.41
65876;HTU21D;52657;51.128;5.938;2024-03-25T12:53:05;16.85;32.70
65876;HTU21D;52657;51.128;5.938;2024-03-25T12:55:31;16.94;33.73
65876;HTU21D;52657;51.128;5.938;2024-03-25T12:57:59;16.98;33.63
65876;HTU21D;52657;51.128;5.938;2024-03-25T13:00:25;16.96;33.63
65876;HTU21D;52657;51.128;5.938;2024-03-25T13:02:51;16.96;32.53
65876;HTU21D;52657;51.128;5.938;2024-03-25T13:05:16;16.96;32.35
65876;HTU21D;52657;51.128;5.938;2024-03-25T13:07:42;17.02;32.61
65876;HTU21D;52657;51.128;5.938;2024-03-25T13:10:08;16.99;32.50
65876;HTU21D;52657;51.128;5.938;2024-03-25T13:12:34;16.90;31.97
65876;HTU21D;52657;51.128;5.938;2024-03-25T13:15:00;16.81;32.31
65876;HTU21D;52657;51.128;5.938;2024-03-25T13:17:26;16.75;32.09
65876;HTU21D;52657;51.128;5.938;2024-03-25T13:19:51;16.69;32.35
65876;HTU21D;52657;51.128;5.938;2024-03-25T13:22:17;16.67;31.77
65876;HTU21D;52657;51.128;5.938;2024-03-25T13:24:46;16.62;31.61
65876;HTU21D;52657;51.128;5.938;2024-03-25T13:27:11;16.58;31.32
65876;HTU21D;52657;51.128;5.938;2024-03-25T13:29:37;16.62;31.59
65876;HTU21D;52657;51.128;5.938;2024-03-25T13:32:03;16.67;31.99
65876;HTU21D;52657;51.128;5.938;2024-03-25T13:34:29;16.70;32.10
65876;HTU21D;52657;51.128;5.938;2024-03-25T13:36:55;16.70;31.43
65876;HTU21D;52657;51.128;5.938;2024-03-25T13:39:21;16.65;32.12
65876;HTU21D;52657;51.128;5.938;2024-03-25T13:41:47;16.69;31.73
65876;HTU21D;52657;51.128;5.938;2024-03-25T13:44:13;16.57;30.80
65876;HTU21D;52657;51.128;5.938;2024-03-25T13:46:39;16.47;31.63
65876;HTU21D;52657;51.128;5.938;2024-03-25T13:49:05;16.41;31.56
65876;HTU21D;52657;51.128;5.938;2024-03-25T13:51:30;16.39;32.15
65876;HTU21D;52657;51.128;5.938;2024-03-25T13:53:59;16.40;32.70
65876;HTU21D;52657;51.128;5.938;2024-03-25T13:56:24;16.42;32.87
65876;HTU21D;52657;51.128;5.938;2024-03-25T13:58:55;16.48;32.83
65876;HTU21D;52657;51.128;5.938;2024-03-25T14:01:21;16.51;33.31
65876;HTU21D;52657;51.128;5.938;2024-03-25T14:03:50;16.59;33.23
65876;HTU21D;52657;51.128;5.938;2024-03-25T14:06:15;16.67;33.12
65876;HTU21D;52657;51.128;5.938;2024-03-25T14:08:41;16.72;32.81
65876;HTU21D;52657;51.128;5.938;2024-03-25T14:11:10;16.77;32.38
65876;HTU21D;52657;51.128;5.938;2024-03-25T14:13:38;16.79;32.67
65876;HTU21D;52657;51.128;5.938;2024-03-25T14:16:04;16.80;33.09
65876;HTU21D;52657;51.128;5.938;2024-03-25T14:18:30;16.86;33.50
65876;HTU21D;52657;51.128;5.938;2024-03-25T14:20:56;16.91;32.47
65876;HTU21D;52657;51.128;5.938;2024-03-25T14:23:25;16.90;33.05
65876;HTU21D;52657;51.128;5.938;2024-03-25T14:25:51;16.91;33.00
65876;HTU21D;52657;51.128;5.938;2024-03-25T14:28:16;16.84;32.62
65876;HTU21D;52657;51.128;5.938;2024-03-25T14:30:42;16.81;33.09
65876;HTU21D;52657;51.128;5.938;2024-03-25T14:33:08;16.85;32.37
65876;HTU21D;52657;51.128;5.938;2024-03-25T14:35:34;16.84;32.64
65876;HTU21D;52657;51.128;5.938;2024-03-25T14:38:03;16.82;33.01
65876;HTU21D;52657;51.128;5.938;2024-03-25T14:40:29;16.81;32.96
65876;HTU21D;52657;51.128;5.938;2024-03-25T14:42:57;16.75;32.34
65876;HTU21D;52657;51.128;5.938;2024-03-25T14:45:23;16.63;32.50
65876;HTU21D;52657;51.128;5.938;2024-03-25T14:47:56;16.52;33.12
65876;HTU21D;52657;51.128;5.938;2024-03-25T14:50:27;16.47;33.76
65876;HTU21D;52657;51.128;5.938;2024-03-25T14:52:54;16.43;33.66
65876;HTU21D;52657;51.128;5.938;2024-03-25T14:55:19;16.43;33.62
65876;HTU21D;52657;51.128;5.938;2024-03-25T14:57:45;16.44;34.02
65876;HTU21D;52657;51.128;5.938;2024-03-25T15:00:11;16.47;33.79
65876;HTU21D;52657;51.128;5.938;2024-03-25T15:02:37;16.50;33.93
65876;HTU21D;52657;51.128;5.938;2024-03-25T15:05:03;16.52;34.43
65876;HTU21D;52657;51.128;5.938;2024-03-25T15:07:30;16.60;34.60
65876;HTU21D;52657;51.128;5.938;2024-03-25T15:09:56;16.58;34.44
65876;HTU21D;52657;51.128;5.938;2024-03-25T15:12:23;16.49;34.20
65876;HTU21D;52657;51.128;5.938;2024-03-25T15:14:52;16.40;34.70
65876;HTU21D;52657;51.128;5.938;2024-03-25T15:17:17;16.43;34.95
65876;HTU21D;52657;51.128;5.938;2024-03-25T15:19:43;16.35;35.14
65876;HTU21D;52657;51.128;5.938;2024-03-25T15:22:09;16.35;35.16
65876;HTU21D;52657;51.128;5.938;2024-03-25T15:24:38;16.29;35.85
65876;HTU21D;52657;51.128;5.938;2024-03-25T15:27:04;16.18;35.95